sensor_id;sensor_type;location;lat;lon;timestamp;temperature;humidity
298;DHT22;133;49.626;9.680;2023-03-15T00:00:51;3.60;96.00
298;DHT22;133;49.626;9.680;2023-03-15T00:03:18;3.70;95.70
298;DHT22;133;49.626;9.680;2023-03-15T00:05:47;3.70;95.40
298;DHT22;133;49.626;9.680;2023-03-15T00:08:14;3.70;95.50
298;DHT22;133;49.626;9.680;2023-03-15T00:10:44;3.80;95.40
298;DHT22;133;49.626;9.680;2023-03-15T00:13:11;3.90;94.70
298;DHT22;133;49.626;9.680;2023-03-15T00:15:48;3.90;94.90
298;DHT22;133;49.626;9.680;2023-03-15T00:18:15;3.90;95.10
298;DHT22;133;49.626;9.680;2023-03-15T00:20:41;4.00;94.80
298;DHT22;133;49.626;9.680;2023-03-15T00:23:07;4.00;94.60
298;DHT22;133;49.626;9.680;2023-03-15T00:25:33;4.10;94.20
298;DHT22;133;49.626;9.680;2023-03-15T00:27:59;4.10;93.90
298;DHT22;133;49.626;9.680;2023-03-15T00:30:24;4.10;93.70
298;DHT22;133;49.626;9.680;2023-03-15T00:32:52;4.10;93.40
298;DHT22;133;49.626;9.680;2023-03-15T00:35:21;4.00;93.60
298;DHT22;133;49.626;9.680;2023-03-15T00:37:49;4.00;93.70
298;DHT22;133;49.626;9.680;2023-03-15T00:40:18;3.90;94.30
298;DHT22;133;49.626;9.680;2023-03-15T00:42:44;4.00;94.60
298;DHT22;133;49.626;9.680;2023-03-15T00:45:15;4.00;94.80
298;DHT22;133;49.626;9.680;2023-03-15T00:47:41;3.90;94.80
298;DHT22;133;49.626;9.680;2023-03-15T00:50:07;4.00;94.70
298;DHT22;133;49.626;9.680;2023-03-15T00:52:34;4.00;94.80
298;DHT22;133;49.626;9.680;2023-03-15T00:55:00;4.10;94.80
298;DHT22;133;49.626;9.680;2023-03-15T00:57:26;4.00;94.90
298;DHT22;133;49.626;9.680;2023-03-15T00:59:51;4.10;94.80
298;DHT22;133;49.626;9.680;2023-03-15T01:02:17;4.10;94.80
298;DHT22;133;49.626;9.680;2023-03-15T01:04:47;4.10;94.60
298;DHT22;133;49.626;9.680;2023-03-15T01:07:12;4.10;94.70
298;DHT22;133;49.626;9.680;2023-03-15T01:09:38;4.20;94.30
298;DHT22;133;49.626;9.680;2023-03-15T01:12:04;4.20;94.10
298;DHT22;133;49.626;9.680;2023-03-15T01:14:30;4.20;94.30
298;DHT22;133;49.626;9.680;2023-03-15T01:16:55;4.20;94.40
298;DHT22;133;49.626;9.680;2023-03-15T01:19:21;4.10;94.30
298;DHT22;133;49.626;9.680;2023-03-15T01:21:47;4.10;94.30
298;DHT22;133;49.626;9.680;2023-03-15T01:24:13;4.10;94.50
298;DHT22;133;49.626;9.680;2023-03-15T01:26:39;4.10;94.60
298;DHT22;133;49.626;9.680;2023-03-15T01:29:05;4.10;94.60
298;DHT22;133;49.626;9.680;2023-03-15T01:31:31;4.10;94.40
298;DHT22;133;49.626;9.680;2023-03-15T01:33:57;4.00;94.20
298;DHT22;133;49.626;9.680;2023-03-15T01:36:23;4.00;94.50
298;DHT22;133;49.626;9.680;2023-03-15T01:38:49;3.90;95.00
298;DHT22;133;49.626;9.680;2023-03-15T01:41:16;3.90;95.20
298;DHT22;133;49.626;9.680;2023-03-15T01:43:42;3.90;95.20
298;DHT22;133;49.626;9.680;2023-03-15T01:54:14;3.90;95.00
298;DHT22;133;49.626;9.680;2023-03-15T01:56:45;3.90;95.10
298;DHT22;133;49.626;9.680;2023-03-15T01:59:24;3.80;94.30
298;DHT22;133;49.626;9.680;2023-03-15T02:01:52;3.80;93.90
298;DHT22;133;49.626;9.680;2023-03-15T02:04:24;3.70;93.90
298;DHT22;133;49.626;9.680;2023-03-15T02:06:55;3.70;93.50
298;DHT22;133;49.626;9.680;2023-03-15T02:09:28;3.60;93.50
298;DHT22;133;49.626;9.680;2023-03-15T02:11:56;3.50;93.80
298;DHT22;133;49.626;9.680;2023-03-15T02:14:23;3.50;94.40
298;DHT22;133;49.626;9.680;2023-03-15T02:16:48;3.50;94.40
298;DHT22;133;49.626;9.680;2023-03-15T02:19:31;3.50;94.40
298;DHT22;133;49.626;9.680;2023-03-15T02:27:26;3.50;95.10
298;DHT22;133;49.626;9.680;2023-03-15T02:29:53;3.50;94.80
298;DHT22;133;49.626;9.680;2023-03-15T02:32:18;3.40;94.80
298;DHT22;133;49.626;9.680;2023-03-15T02:34:44;3.40;94.90
298;DHT22;133;49.626;9.680;2023-03-15T02:37:09;3.40;94.80
298;DHT22;133;49.626;9.680;2023-03-15T02:39:35;3.40;94.50
298;DHT22;133;49.626;9.680;2023-03-15T02:42:01;3.40;95.00
298;DHT22;133;49.626;9.680;2023-03-15T02:44:35;3.30;94.70
298;DHT22;133;49.626;9.680;2023-03-15T02:47:25;3.30;94.60
298;DHT22;133;49.626;9.680;2023-03-15T02:49:52;3.30;94.60
298;DHT22;133;49.626;9.680;2023-03-15T02:52:22;3.20;94.60
298;DHT22;133;49.626;9.680;2023-03-15T02:54:48;3.10;94.90
298;DHT22;133;49.626;9.680;2023-03-15T02:57:15;3.10;95.10
298;DHT22;133;49.626;9.680;2023-03-15T02:59:41;3.00;95.00
298;DHT22;133;49.626;9.680;2023-03-15T03:02:08;2.90;95.40
298;DHT22;133;49.626;9.680;2023-03-15T03:04:36;2.90;95.40
298;DHT22;133;49.626;9.680;2023-03-15T03:07:02;2.90;95.40
298;DHT22;133;49.626;9.680;2023-03-15T03:09:28;2.90;95.50
298;DHT22;133;49.626;9.680;2023-03-15T03:11:53;2.90;95.40
298;DHT22;133;49.626;9.680;2023-03-15T03:14:19;2.90;95.60
298;DHT22;133;49.626;9.680;2023-03-15T03:16:48;2.90;95.80
298;DHT22;133;49.626;9.680;2023-03-15T03:19:14;2.90;95.70
298;DHT22;133;49.626;9.680;2023-03-15T03:21:40;2.90;95.50
298;DHT22;133;49.626;9.680;2023-03-15T03:24:09;2.90;95.50
298;DHT22;133;49.626;9.680;2023-03-15T03:26:35;3.00;95.30
298;DHT22;133;49.626;9.680;2023-03-15T03:29:03;3.00;94.30
298;DHT22;133;49.626;9.680;2023-03-15T03:31:32;3.00;93.70
298;DHT22;133;49.626;9.680;2023-03-15T03:34:00;2.90;93.80
298;DHT22;133;49.626;9.680;2023-03-15T03:36:26;2.80;94.00
298;DHT22;133;49.626;9.680;2023-03-15T03:38:52;2.80;94.20
298;DHT22;133;49.626;9.680;2023-03-15T03:41:19;2.70;94.50
298;DHT22;133;49.626;9.680;2023-03-15T03:43:45;2.70;94.70
298;DHT22;133;49.626;9.680;2023-03-15T03:46:11;2.70;94.80
298;DHT22;133;49.626;9.680;2023-03-15T03:48:37;2.60;94.90
298;DHT22;133;49.626;9.680;2023-03-15T03:51:03;2.60;95.10
298;DHT22;133;49.626;9.680;2023-03-15T03:53:28;2.40;95.30
298;DHT22;133;49.626;9.680;2023-03-15T03:55:54;2.40;95.30
298;DHT22;133;49.626;9.680;2023-03-15T03:58:20;2.40;95.50
298;DHT22;133;49.626;9.680;2023-03-15T04:00:46;2.40;95.50
298;DHT22;133;49.626;9.680;2023-03-15T04:03:12;2.30;95.60
298;DHT22;133;49.626;9.680;2023-03-15T04:05:37;2.40;96.00
298;DHT22;133;49.626;9.680;2023-03-15T04:08:04;2.30;95.80
298;DHT22;133;49.626;9.680;2023-03-15T04:10:29;2.30;95.90
298;DHT22;133;49.626;9.680;2023-03-15T04:13:00;2.40;96.00
298;DHT22;133;49.626;9.680;2023-03-15T04:15:26;2.30;95.30
298;DHT22;133;49.626;9.680;2023-03-15T04:17:52;2.20;94.90
298;DHT22;133;49.626;9.680;2023-03-15T04:20:24;2.10;95.00
298;DHT22;133;49.626;9.680;2023-03-15T04:22:50;2.20;95.10
298;DHT22;133;49.626;9.680;2023-03-15T04:25:17;2.20;94.70
298;DHT22;133;49.626;9.680;2023-03-15T04:27:42;2.20;94.80
298;DHT22;133;49.626;9.680;2023-03-15T04:30:09;2.20;95.00
298;DHT22;133;49.626;9.680;2023-03-15T04:32:35;2.20;95.10
298;DHT22;133;49.626;9.680;2023-03-15T04:35:01;2.30;95.30
298;DHT22;133;49.626;9.680;2023-03-15T04:37:27;2.30;94.90
298;DHT22;133;49.626;9.680;2023-03-15T04:39:53;2.20;94.70
298;DHT22;133;49.626;9.680;2023-03-15T04:42:19;2.20;94.90
298;DHT22;133;49.626;9.680;2023-03-15T04:44:45;2.20;94.90
298;DHT22;133;49.626;9.680;2023-03-15T04:47:11;2.20;95.10
298;DHT22;133;49.626;9.680;2023-03-15T04:49:37;2.10;94.80
298;DHT22;133;49.626;9.680;2023-03-15T04:52:02;2.00;95.20
298;DHT22;133;49.626;9.680;2023-03-15T04:54:28;2.00;95.10
298;DHT22;133;49.626;9.680;2023-03-15T04:56:54;2.00;95.40
298;DHT22;133;49.626;9.680;2023-03-15T04:59:19;2.00;95.20
298;DHT22;133;49.626;9.680;2023-03-15T05:01:45;1.80;94.80
298;DHT22;133;49.626;9.680;2023-03-15T05:04:11;1.70;95.30
298;DHT22;133;49.626;9.680;2023-03-15T05:06:37;1.70;95.60
298;DHT22;133;49.626;9.680;2023-03-15T05:09:03;1.70;95.50
298;DHT22;133;49.626;9.680;2023-03-15T05:11:28;1.60;95.80
298;DHT22;133;49.626;9.680;2023-03-15T05:13:54;1.60;96.30
298;DHT22;133;49.626;9.680;2023-03-15T05:16:20;1.50;96.50
298;DHT22;133;49.626;9.680;2023-03-15T05:18:45;1.50;96.70
298;DHT22;133;49.626;9.680;2023-03-15T05:21:11;1.50;96.80
298;DHT22;133;49.626;9.680;2023-03-15T05:23:37;1.50;96.70
298;DHT22;133;49.626;9.680;2023-03-15T05:26:03;1.50;96.70
298;DHT22;133;49.626;9.680;2023-03-15T05:28:29;1.40;96.80
298;DHT22;133;49.626;9.680;2023-03-15T05:30:56;1.50;96.50
298;DHT22;133;49.626;9.680;2023-03-15T05:33:21;1.40;96.70
298;DHT22;133;49.626;9.680;2023-03-15T05:35:47;1.40;96.70
298;DHT22;133;49.626;9.680;2023-03-15T05:38:13;1.40;96.70
298;DHT22;133;49.626;9.680;2023-03-15T05:40:43;1.40;96.90
298;DHT22;133;49.626;9.680;2023-03-15T05:43:09;1.40;96.80
298;DHT22;133;49.626;9.680;2023-03-15T05:45:35;1.40;96.80
298;DHT22;133;49.626;9.680;2023-03-15T05:48:01;1.50;96.70
298;DHT22;133;49.626;9.680;2023-03-15T05:50:26;1.60;96.30
298;DHT22;133;49.626;9.680;2023-03-15T05:52:53;1.50;96.10
298;DHT22;133;49.626;9.680;2023-03-15T05:55:19;1.60;96.10
298;DHT22;133;49.626;9.680;2023-03-15T05:57:45;1.60;96.10
298;DHT22;133;49.626;9.680;2023-03-15T06:00:11;1.60;96.30
298;DHT22;133;49.626;9.680;2023-03-15T06:02:42;1.60;96.10
298;DHT22;133;49.626;9.680;2023-03-15T06:05:09;1.70;96.30
298;DHT22;133;49.626;9.680;2023-03-15T06:07:34;1.70;96.10
298;DHT22;133;49.626;9.680;2023-03-15T06:10:00;1.70;96.00
298;DHT22;133;49.626;9.680;2023-03-15T06:12:26;1.70;96.00
298;DHT22;133;49.626;9.680;2023-03-15T06:14:51;1.80;96.00
298;DHT22;133;49.626;9.680;2023-03-15T06:17:17;1.80;95.70
298;DHT22;133;49.626;9.680;2023-03-15T06:19:43;1.80;95.90
298;DHT22;133;49.626;9.680;2023-03-15T06:22:08;1.80;95.60
298;DHT22;133;49.626;9.680;2023-03-15T06:24:34;1.80;95.60
298;DHT22;133;49.626;9.680;2023-03-15T06:27:00;1.90;95.70
298;DHT22;133;49.626;9.680;2023-03-15T06:29:26;1.80;95.40
298;DHT22;133;49.626;9.680;2023-03-15T06:31:52;1.80;95.50
298;DHT22;133;49.626;9.680;2023-03-15T06:34:18;1.80;95.40
298;DHT22;133;49.626;9.680;2023-03-15T06:36:44;1.80;95.10
298;DHT22;133;49.626;9.680;2023-03-15T06:39:10;1.80;95.10
298;DHT22;133;49.626;9.680;2023-03-15T06:41:37;1.80;95.40
298;DHT22;133;49.626;9.680;2023-03-15T06:44:02;1.80;95.50
298;DHT22;133;49.626;9.680;2023-03-15T06:46:28;1.70;95.40
298;DHT22;133;49.626;9.680;2023-03-15T06:48:53;1.70;95.40
298;DHT22;133;49.626;9.680;2023-03-15T06:51:19;1.70;95.60
298;DHT22;133;49.626;9.680;2023-03-15T06:53:44;1.70;95.90
298;DHT22;133;49.626;9.680;2023-03-15T06:56:10;1.70;95.90
298;DHT22;133;49.626;9.680;2023-03-15T06:58:36;1.70;96.10
298;DHT22;133;49.626;9.680;2023-03-15T07:01:02;1.70;96.20
298;DHT22;133;49.626;9.680;2023-03-15T07:03:28;1.80;96.30
298;DHT22;133;49.626;9.680;2023-03-15T07:05:53;1.80;96.40
298;DHT22;133;49.626;9.680;2023-03-15T07:08:20;1.90;96.20
298;DHT22;133;49.626;9.680;2023-03-15T07:10:46;1.90;96.40
298;DHT22;133;49.626;9.680;2023-03-15T07:13:13;2.00;96.60
298;DHT22;133;49.626;9.680;2023-03-15T07:15:39;2.00;96.20
298;DHT22;133;49.626;9.680;2023-03-15T07:18:04;2.00;96.30
298;DHT22;133;49.626;9.680;2023-03-15T07:20:30;2.10;95.80
298;DHT22;133;49.626;9.680;2023-03-15T07:22:56;2.10;95.30
298;DHT22;133;49.626;9.680;2023-03-15T07:25:22;2.10;95.30
298;DHT22;133;49.626;9.680;2023-03-15T07:27:52;2.10;94.70
298;DHT22;133;49.626;9.680;2023-03-15T07:30:19;2.20;95.30
298;DHT22;133;49.626;9.680;2023-03-15T07:32:45;2.20;94.60
298;DHT22;133;49.626;9.680;2023-03-15T07:35:11;2.30;94.30
298;DHT22;133;49.626;9.680;2023-03-15T07:37:37;2.40;94.30
298;DHT22;133;49.626;9.680;2023-03-15T07:40:03;2.50;94.10
298;DHT22;133;49.626;9.680;2023-03-15T07:42:37;2.50;93.00
298;DHT22;133;49.626;9.680;2023-03-15T07:45:04;2.50;93.30
298;DHT22;133;49.626;9.680;2023-03-15T07:47:30;2.60;93.20
298;DHT22;133;49.626;9.680;2023-03-15T07:49:56;2.70;92.90
298;DHT22;133;49.626;9.680;2023-03-15T07:52:22;2.70;92.80
298;DHT22;133;49.626;9.680;2023-03-15T07:54:48;2.50;92.60
298;DHT22;133;49.626;9.680;2023-03-15T07:57:13;2.60;93.20
298;DHT22;133;49.626;9.680;2023-03-15T07:59:39;2.70;93.10
298;DHT22;133;49.626;9.680;2023-03-15T08:02:05;2.80;92.70
298;DHT22;133;49.626;9.680;2023-03-15T08:04:31;2.80;92.20
298;DHT22;133;49.626;9.680;2023-03-15T08:06:57;2.90;92.30
298;DHT22;133;49.626;9.680;2023-03-15T08:09:23;3.10;92.20
298;DHT22;133;49.626;9.680;2023-03-15T08:11:49;3.20;91.70
298;DHT22;133;49.626;9.680;2023-03-15T08:14:15;3.10;91.30
298;DHT22;133;49.626;9.680;2023-03-15T08:16:40;3.10;90.90
298;DHT22;133;49.626;9.680;2023-03-15T08:19:06;3.00;90.50
298;DHT22;133;49.626;9.680;2023-03-15T08:21:32;3.10;90.60
298;DHT22;133;49.626;9.680;2023-03-15T08:23:58;3.10;90.60
298;DHT22;133;49.626;9.680;2023-03-15T08:26:24;3.20;91.10
298;DHT22;133;49.626;9.680;2023-03-15T08:28:50;3.20;90.90
298;DHT22;133;49.626;9.680;2023-03-15T08:31:15;3.30;91.50
298;DHT22;133;49.626;9.680;2023-03-15T08:33:41;3.20;91.20
298;DHT22;133;49.626;9.680;2023-03-15T08:36:07;3.30;92.00
298;DHT22;133;49.626;9.680;2023-03-15T08:38:33;3.10;92.00
298;DHT22;133;49.626;9.680;2023-03-15T08:40:58;3.10;92.70
298;DHT22;133;49.626;9.680;2023-03-15T08:43:24;3.10;93.20
298;DHT22;133;49.626;9.680;2023-03-15T08:45:50;3.00;93.50
298;DHT22;133;49.626;9.680;2023-03-15T08:48:16;3.00;93.50
298;DHT22;133;49.626;9.680;2023-03-15T08:50:42;3.00;93.40
298;DHT22;133;49.626;9.680;2023-03-15T08:53:08;3.00;94.00
298;DHT22;133;49.626;9.680;2023-03-15T08:55:36;3.00;94.10
298;DHT22;133;49.626;9.680;2023-03-15T08:58:02;2.90;94.50
298;DHT22;133;49.626;9.680;2023-03-15T09:00:29;2.90;94.60
298;DHT22;133;49.626;9.680;2023-03-15T09:02:54;2.90;95.10
298;DHT22;133;49.626;9.680;2023-03-15T09:05:22;3.00;95.70
298;DHT22;133;49.626;9.680;2023-03-15T09:07:48;3.00;95.50
298;DHT22;133;49.626;9.680;2023-03-15T09:10:15;3.10;95.20
298;DHT22;133;49.626;9.680;2023-03-15T09:12:50;3.10;95.30
298;DHT22;133;49.626;9.680;2023-03-15T09:15:18;3.10;95.10
298;DHT22;133;49.626;9.680;2023-03-15T09:17:44;3.30;94.80
298;DHT22;133;49.626;9.680;2023-03-15T09:20:12;3.30;94.00
298;DHT22;133;49.626;9.680;2023-03-15T09:22:48;3.30;94.50
298;DHT22;133;49.626;9.680;2023-03-15T09:25:14;3.10;94.60
298;DHT22;133;49.626;9.680;2023-03-15T09:27:39;3.00;95.20
298;DHT22;133;49.626;9.680;2023-03-15T09:30:06;2.90;95.00
298;DHT22;133;49.626;9.680;2023-03-15T09:32:31;3.00;95.60
298;DHT22;133;49.626;9.680;2023-03-15T09:35:05;2.90;95.90
298;DHT22;133;49.626;9.680;2023-03-15T09:37:32;2.90;96.10
298;DHT22;133;49.626;9.680;2023-03-15T09:39:57;3.10;96.10
298;DHT22;133;49.626;9.680;2023-03-15T09:48:13;3.10;95.80
298;DHT22;133;49.626;9.680;2023-03-15T09:50:57;3.10;95.30
298;DHT22;133;49.626;9.680;2023-03-15T09:53:40;3.00;95.90
298;DHT22;133;49.626;9.680;2023-03-15T09:56:25;3.10;96.00
298;DHT22;133;49.626;9.680;2023-03-15T09:58:55;3.10;96.20
298;DHT22;133;49.626;9.680;2023-03-15T10:01:28;3.20;96.10
298;DHT22;133;49.626;9.680;2023-03-15T10:03:55;3.20;95.60
298;DHT22;133;49.626;9.680;2023-03-15T10:06:28;3.20;96.10
298;DHT22;133;49.626;9.680;2023-03-15T10:09:01;3.20;96.40
298;DHT22;133;49.626;9.680;2023-03-15T10:11:40;3.30;96.90
298;DHT22;133;49.626;9.680;2023-03-15T10:16:49;3.30;95.90
298;DHT22;133;49.626;9.680;2023-03-15T10:22:03;3.50;96.10
298;DHT22;133;49.626;9.680;2023-03-15T10:29:50;3.50;95.80
298;DHT22;133;49.626;9.680;2023-03-15T10:32:19;3.60;95.80
298;DHT22;133;49.626;9.680;2023-03-15T10:34:49;3.60;95.40
298;DHT22;133;49.626;9.680;2023-03-15T10:37:17;3.70;95.50
298;DHT22;133;49.626;9.680;2023-03-15T10:39:46;3.80;94.30
298;DHT22;133;49.626;9.680;2023-03-15T10:42:46;3.80;94.30
298;DHT22;133;49.626;9.680;2023-03-15T10:45:21;3.70;94.90
298;DHT22;133;49.626;9.680;2023-03-15T10:47:48;3.80;94.60
298;DHT22;133;49.626;9.680;2023-03-15T10:52:54;4.00;95.00
298;DHT22;133;49.626;9.680;2023-03-15T10:55:29;4.00;94.40
298;DHT22;133;49.626;9.680;2023-03-15T10:57:58;4.00;94.20
298;DHT22;133;49.626;9.680;2023-03-15T11:00:34;3.90;93.70
298;DHT22;133;49.626;9.680;2023-03-15T11:05:40;3.70;94.10
298;DHT22;133;49.626;9.680;2023-03-15T11:08:12;3.70;94.10
298;DHT22;133;49.626;9.680;2023-03-15T11:10:38;3.70;94.40
298;DHT22;133;49.626;9.680;2023-03-15T11:13:22;3.90;94.50
298;DHT22;133;49.626;9.680;2023-03-15T11:15:57;3.90;94.30
298;DHT22;133;49.626;9.680;2023-03-15T11:18:29;3.90;93.40
298;DHT22;133;49.626;9.680;2023-03-15T11:20:56;4.00;92.80
298;DHT22;133;49.626;9.680;2023-03-15T11:23:28;4.00;92.90
298;DHT22;133;49.626;9.680;2023-03-15T11:25:54;3.90;93.10
298;DHT22;133;49.626;9.680;2023-03-15T11:28:27;4.00;93.10
298;DHT22;133;49.626;9.680;2023-03-15T11:30:54;4.00;93.30
298;DHT22;133;49.626;9.680;2023-03-15T11:33:55;4.20;93.70
298;DHT22;133;49.626;9.680;2023-03-15T11:36:25;4.30;93.50
298;DHT22;133;49.626;9.680;2023-03-15T11:38:52;4.20;92.70
298;DHT22;133;49.626;9.680;2023-03-15T11:41:44;4.20;92.20
298;DHT22;133;49.626;9.680;2023-03-15T11:44:37;4.20;92.10
298;DHT22;133;49.626;9.680;2023-03-15T11:47:09;4.20;91.60
298;DHT22;133;49.626;9.680;2023-03-15T11:49:56;4.10;92.20
298;DHT22;133;49.626;9.680;2023-03-15T11:52:24;4.20;92.20
298;DHT22;133;49.626;9.680;2023-03-15T11:54:54;4.20;92.90
298;DHT22;133;49.626;9.680;2023-03-15T11:57:36;4.20;92.40
298;DHT22;133;49.626;9.680;2023-03-15T12:02:55;4.40;92.90
298;DHT22;133;49.626;9.680;2023-03-15T12:05:41;4.40;92.40
298;DHT22;133;49.626;9.680;2023-03-15T12:10:47;4.60;91.60
298;DHT22;133;49.626;9.680;2023-03-15T12:13:32;4.60;91.70
298;DHT22;133;49.626;9.680;2023-03-15T12:15:58;4.50;91.60
298;DHT22;133;49.626;9.680;2023-03-15T12:18:28;4.50;92.30
298;DHT22;133;49.626;9.680;2023-03-15T12:21:13;4.50;91.70
298;DHT22;133;49.626;9.680;2023-03-15T12:24:01;4.40;91.50
298;DHT22;133;49.626;9.680;2023-03-15T12:26:37;4.60;91.20
298;DHT22;133;49.626;9.680;2023-03-15T12:29:09;4.60;90.20
298;DHT22;133;49.626;9.680;2023-03-15T12:31:48;4.40;89.70
298;DHT22;133;49.626;9.680;2023-03-15T12:34:22;4.40;90.20
298;DHT22;133;49.626;9.680;2023-03-15T12:36:51;4.40;90.00
298;DHT22;133;49.626;9.680;2023-03-15T12:41:50;4.50;89.90
298;DHT22;133;49.626;9.680;2023-03-15T12:46:59;4.40;90.10
298;DHT22;133;49.626;9.680;2023-03-15T12:49:29;4.40;89.70
298;DHT22;133;49.626;9.680;2023-03-15T12:57:33;4.70;90.30
298;DHT22;133;49.626;9.680;2023-03-15T13:00:04;5.00;89.00
298;DHT22;133;49.626;9.680;2023-03-15T13:02:34;5.00;88.70
298;DHT22;133;49.626;9.680;2023-03-15T13:08:03;5.20;88.40
298;DHT22;133;49.626;9.680;2023-03-15T13:13:46;5.40;87.00
298;DHT22;133;49.626;9.680;2023-03-15T13:24:22;6.10;83.20
298;DHT22;133;49.626;9.680;2023-03-15T13:27:11;6.30;84.40
298;DHT22;133;49.626;9.680;2023-03-15T13:29:37;6.30;84.20
298;DHT22;133;49.626;9.680;2023-03-15T13:32:15;6.40;83.20
298;DHT22;133;49.626;9.680;2023-03-15T13:34:44;6.50;83.50
298;DHT22;133;49.626;9.680;2023-03-15T13:37:14;6.50;83.20
298;DHT22;133;49.626;9.680;2023-03-15T13:39:52;6.40;83.40
298;DHT22;133;49.626;9.680;2023-03-15T13:42:18;6.50;83.30
298;DHT22;133;49.626;9.680;2023-03-15T13:44:44;6.50;83.10
298;DHT22;133;49.626;9.680;2023-03-15T13:47:18;6.80;83.00
298;DHT22;133;49.626;9.680;2023-03-15T13:49:46;6.80;82.30
298;DHT22;133;49.626;9.680;2023-03-15T13:52:16;6.70;82.60
298;DHT22;133;49.626;9.680;2023-03-15T13:54:42;6.50;81.90
298;DHT22;133;49.626;9.680;2023-03-15T13:57:18;6.40;82.80
298;DHT22;133;49.626;9.680;2023-03-15T14:02:51;6.10;82.50
298;DHT22;133;49.626;9.680;2023-03-15T14:05:24;6.30;82.90
298;DHT22;133;49.626;9.680;2023-03-15T14:08:22;6.30;82.40
298;DHT22;133;49.626;9.680;2023-03-15T14:11:11;6.30;82.50
298;DHT22;133;49.626;9.680;2023-03-15T14:13:56;6.20;82.00
298;DHT22;133;49.626;9.680;2023-03-15T14:16:33;6.30;82.30
298;DHT22;133;49.626;9.680;2023-03-15T14:19:22;6.10;82.80
298;DHT22;133;49.626;9.680;2023-03-15T14:21:54;6.00;82.70
298;DHT22;133;49.626;9.680;2023-03-15T14:24:41;6.00;82.60
298;DHT22;133;49.626;9.680;2023-03-15T14:27:19;6.20;83.00
298;DHT22;133;49.626;9.680;2023-03-15T14:29:59;6.40;83.10
298;DHT22;133;49.626;9.680;2023-03-15T14:35:16;6.80;81.50
298;DHT22;133;49.626;9.680;2023-03-15T14:37:43;7.20;80.90
298;DHT22;133;49.626;9.680;2023-03-15T14:40:20;7.60;81.10
298;DHT22;133;49.626;9.680;2023-03-15T14:42:48;7.70;78.80
298;DHT22;133;49.626;9.680;2023-03-15T14:45:15;7.90;78.90
298;DHT22;133;49.626;9.680;2023-03-15T14:47:47;7.90;78.20
298;DHT22;133;49.626;9.680;2023-03-15T14:50:19;7.80;79.30
298;DHT22;133;49.626;9.680;2023-03-15T14:52:47;7.80;78.80
298;DHT22;133;49.626;9.680;2023-03-15T14:55:34;7.70;77.40
298;DHT22;133;49.626;9.680;2023-03-15T14:58:12;7.20;79.10
298;DHT22;133;49.626;9.680;2023-03-15T15:00:38;7.00;78.60
298;DHT22;133;49.626;9.680;2023-03-15T15:03:12;6.80;79.90
298;DHT22;133;49.626;9.680;2023-03-15T15:05:39;6.70;80.40
298;DHT22;133;49.626;9.680;2023-03-15T15:08:09;6.80;80.70
298;DHT22;133;49.626;9.680;2023-03-15T15:10:38;6.90;81.40
298;DHT22;133;49.626;9.680;2023-03-15T15:13:03;7.20;80.50
298;DHT22;133;49.626;9.680;2023-03-15T15:15:29;7.60;79.90
298;DHT22;133;49.626;9.680;2023-03-15T15:17:55;7.80;79.50
298;DHT22;133;49.626;9.680;2023-03-15T15:20:21;7.70;78.60
298;DHT22;133;49.626;9.680;2023-03-15T15:22:47;7.50;80.30
298;DHT22;133;49.626;9.680;2023-03-15T15:25:21;7.20;81.50
298;DHT22;133;49.626;9.680;2023-03-15T15:27:47;6.90;82.50
298;DHT22;133;49.626;9.680;2023-03-15T15:30:19;6.80;82.90
298;DHT22;133;49.626;9.680;2023-03-15T15:32:45;6.70;83.30
298;DHT22;133;49.626;9.680;2023-03-15T15:35:12;6.70;84.10
298;DHT22;133;49.626;9.680;2023-03-15T15:37:40;6.80;84.20
298;DHT22;133;49.626;9.680;2023-03-15T15:40:27;7.00;84.00
298;DHT22;133;49.626;9.680;2023-03-15T15:42:53;7.10;83.10
298;DHT22;133;49.626;9.680;2023-03-15T15:45:19;7.10;82.50
298;DHT22;133;49.626;9.680;2023-03-15T15:47:45;7.10;81.90
298;DHT22;133;49.626;9.680;2023-03-15T15:50:13;7.10;82.10
298;DHT22;133;49.626;9.680;2023-03-15T15:52:42;7.10;82.30
298;DHT22;133;49.626;9.680;2023-03-15T15:55:19;7.20;81.50
298;DHT22;133;49.626;9.680;2023-03-15T15:57:49;7.00;80.70
298;DHT22;133;49.626;9.680;2023-03-15T16:00:18;6.90;81.30
298;DHT22;133;49.626;9.680;2023-03-15T16:02:44;6.80;81.90
298;DHT22;133;49.626;9.680;2023-03-15T16:05:10;6.80;82.70
298;DHT22;133;49.626;9.680;2023-03-15T16:07:37;6.80;82.80
298;DHT22;133;49.626;9.680;2023-03-15T16:10:05;6.80;82.70
298;DHT22;133;49.626;9.680;2023-03-15T16:12:31;6.70;83.00
298;DHT22;133;49.626;9.680;2023-03-15T16:14:57;6.60;83.70
298;DHT22;133;49.626;9.680;2023-03-15T16:17:23;6.50;83.60
298;DHT22;133;49.626;9.680;2023-03-15T16:19:50;6.40;83.90
298;DHT22;133;49.626;9.680;2023-03-15T16:22:17;6.30;84.40
298;DHT22;133;49.626;9.680;2023-03-15T16:24:47;6.10;85.40
298;DHT22;133;49.626;9.680;2023-03-15T16:27:16;6.10;85.90
298;DHT22;133;49.626;9.680;2023-03-15T16:29:47;6.20;85.70
298;DHT22;133;49.626;9.680;2023-03-15T16:32:21;6.20;85.60
298;DHT22;133;49.626;9.680;2023-03-15T16:34:48;6.30;86.00
298;DHT22;133;49.626;9.680;2023-03-15T16:37:17;6.50;85.90
298;DHT22;133;49.626;9.680;2023-03-15T16:39:46;6.60;84.90
298;DHT22;133;49.626;9.680;2023-03-15T16:42:13;6.60;83.20
298;DHT22;133;49.626;9.680;2023-03-15T16:44:39;6.60;82.10
298;DHT22;133;49.626;9.680;2023-03-15T16:47:06;6.60;82.20
298;DHT22;133;49.626;9.680;2023-03-15T16:49:32;6.60;81.70
298;DHT22;133;49.626;9.680;2023-03-15T16:51:58;6.60;82.90
298;DHT22;133;49.626;9.680;2023-03-15T16:54:25;6.70;83.00
298;DHT22;133;49.626;9.680;2023-03-15T16:56:51;6.60;81.30
298;DHT22;133;49.626;9.680;2023-03-15T16:59:17;6.40;80.90
298;DHT22;133;49.626;9.680;2023-03-15T17:01:44;6.40;81.10
298;DHT22;133;49.626;9.680;2023-03-15T17:04:10;6.30;81.20
298;DHT22;133;49.626;9.680;2023-03-15T17:06:36;6.20;80.40
298;DHT22;133;49.626;9.680;2023-03-15T17:09:06;6.10;80.50
298;DHT22;133;49.626;9.680;2023-03-15T17:11:37;5.90;80.20
298;DHT22;133;49.626;9.680;2023-03-15T17:14:03;5.80;80.10
298;DHT22;133;49.626;9.680;2023-03-15T17:16:31;5.80;80.20
298;DHT22;133;49.626;9.680;2023-03-15T17:18:56;5.80;80.20
298;DHT22;133;49.626;9.680;2023-03-15T17:21:23;5.70;80.20
298;DHT22;133;49.626;9.680;2023-03-15T17:23:50;5.60;80.90
298;DHT22;133;49.626;9.680;2023-03-15T17:26:21;5.60;81.30
298;DHT22;133;49.626;9.680;2023-03-15T17:28:48;5.60;81.80
298;DHT22;133;49.626;9.680;2023-03-15T17:31:18;5.60;82.40
298;DHT22;133;49.626;9.680;2023-03-15T17:33:45;5.50;82.70
298;DHT22;133;49.626;9.680;2023-03-15T17:36:18;5.50;82.60
298;DHT22;133;49.626;9.680;2023-03-15T17:38:45;5.50;83.10
298;DHT22;133;49.626;9.680;2023-03-15T17:41:23;5.40;83.50
298;DHT22;133;49.626;9.680;2023-03-15T17:43:50;5.20;84.60
298;DHT22;133;49.626;9.680;2023-03-15T17:46:17;5.20;85.10
298;DHT22;133;49.626;9.680;2023-03-15T17:48:43;5.10;85.20
298;DHT22;133;49.626;9.680;2023-03-15T17:51:18;5.00;85.60
298;DHT22;133;49.626;9.680;2023-03-15T17:53:45;4.90;86.10
298;DHT22;133;49.626;9.680;2023-03-15T17:56:10;4.90;86.10
298;DHT22;133;49.626;9.680;2023-03-15T17:58:36;4.80;86.40
298;DHT22;133;49.626;9.680;2023-03-15T18:01:02;4.70;86.60
298;DHT22;133;49.626;9.680;2023-03-15T18:03:29;4.60;86.80
298;DHT22;133;49.626;9.680;2023-03-15T18:05:55;4.40;86.80
298;DHT22;133;49.626;9.680;2023-03-15T18:08:21;4.40;87.60
298;DHT22;133;49.626;9.680;2023-03-15T18:10:49;4.30;87.90
298;DHT22;133;49.626;9.680;2023-03-15T18:13:17;4.30;87.50